createdAt,value
2022-08-27T00:02:17.282Z,3.50
2022-08-27T00:04:46.693Z,3.80
2022-08-27T00:07:15.947Z,4.35
2022-08-27T00:09:44.539Z,4.10
2022-08-27T00:12:13.676Z,4.28
2022-08-27T00:14:42.220Z,3.83
2022-08-27T00:17:12.352Z,3.85
2022-08-27T00:19:41.438Z,3.72
2022-08-27T00:22:10.758Z,4.20
2022-08-27T00:24:48.646Z,3.35
2022-08-27T00:27:18.488Z,4.88
2022-08-27T00:29:47.220Z,4.00
2022-08-27T00:32:17.847Z,4.72
2022-08-27T00:34:46.226Z,4.00
2022-08-27T00:37:15.507Z,3.85
2022-08-27T00:39:43.911Z,3.42
2022-08-27T00:42:12.764Z,4.15
2022-08-27T00:44:41.215Z,3.83
2022-08-27T00:47:14.104Z,3.30
2022-08-27T00:49:48.147Z,3.55
2022-08-27T00:52:24.270Z,4.10
2022-08-27T00:55:07.958Z,4.78
2022-08-27T00:57:39.954Z,4.00
2022-08-27T01:00:13.415Z,5.00
2022-08-27T01:02:43.469Z,4.40
2022-08-27T01:05:18.211Z,4.00
2022-08-27T01:07:50.137Z,4.35
2022-08-27T01:10:22.651Z,4.07
2022-08-27T01:12:54.214Z,4.20
2022-08-27T01:15:25.635Z,4.13
2022-08-27T01:17:54.972Z,5.05
2022-08-27T01:20:28.495Z,4.63
2022-08-27T01:23:04.625Z,4.55
2022-08-27T01:25:34.777Z,4.28
2022-08-27T01:28:05.104Z,4.32
2022-08-27T01:30:33.816Z,3.72
2022-08-27T01:33:02.373Z,4.03
2022-08-27T01:35:30.911Z,4.30
2022-08-27T01:38:02.015Z,3.95
2022-08-27T01:40:30.534Z,4.03
2022-08-27T01:43:01.407Z,4.40
2022-08-27T01:45:33.790Z,4.00
2022-08-27T01:48:03.503Z,3.95
2022-08-27T01:50:36.034Z,5.10
2022-08-27T01:53:07.008Z,3.90
2022-08-27T01:55:35.752Z,4.38
2022-08-27T01:58:06.113Z,4.45
2022-08-27T02:00:37.016Z,4.53
2022-08-27T02:03:05.739Z,4.00
2022-08-27T02:05:44.703Z,4.63
2022-08-27T02:08:16.020Z,4.47
2022-08-27T02:10:46.357Z,3.72
2022-08-27T02:13:16.822Z,3.55
2022-08-27T02:15:46.000Z,4.25
2022-08-27T02:18:15.563Z,4.68
2022-08-27T02:20:46.302Z,3.95
2022-08-27T02:23:15.471Z,4.20
2022-08-27T02:25:44.860Z,4.13
2022-08-27T02:28:13.381Z,4.00
2022-08-27T02:30:43.182Z,5.32
2022-08-27T02:33:11.891Z,3.78
2022-08-27T02:35:43.001Z,4.38
2022-08-27T02:38:12.865Z,4.28
2022-08-27T02:40:41.696Z,4.35
2022-08-27T02:43:10.368Z,4.47
2022-08-27T02:45:46.198Z,3.80
2022-08-27T02:48:14.743Z,4.35
2022-08-27T02:50:43.704Z,4.03
2022-08-27T02:53:12.483Z,3.70
2022-08-27T02:55:40.950Z,4.40
2022-08-27T02:58:09.809Z,3.78
2022-08-27T03:00:38.497Z,4.53
2022-08-27T03:03:10.723Z,4.53
2022-08-27T03:05:39.318Z,4.70
2022-08-27T03:08:08.849Z,4.57
2022-08-27T03:10:37.537Z,3.80
2022-08-27T03:13:06.155Z,4.13
2022-08-27T03:15:34.501Z,3.63
2022-08-27T03:18:21.925Z,4.20
2022-08-27T03:20:54.093Z,4.20
2022-08-27T03:23:25.403Z,4.45
2022-08-27T03:25:55.681Z,4.60
2022-08-27T03:28:26.105Z,4.70
2022-08-27T03:30:58.850Z,3.88
2022-08-27T03:33:27.455Z,4.32
2022-08-27T03:35:57.481Z,4.07
2022-08-27T03:38:26.862Z,3.95
2022-08-27T03:40:55.888Z,3.63
2022-08-27T03:43:24.841Z,4.18
2022-08-27T03:46:00.910Z,4.10
2022-08-27T03:48:32.097Z,4.18
2022-08-27T03:51:06.804Z,4.05
2022-08-27T03:53:35.977Z,4.32
2022-08-27T03:56:06.367Z,4.32
2022-08-27T03:58:34.891Z,4.15
2022-08-27T04:01:03.431Z,3.95
2022-08-27T04:03:31.982Z,4.30
2022-08-27T04:06:03.074Z,4.32
2022-08-27T04:08:31.651Z,4.35
2022-08-27T04:11:00.262Z,5.65
2022-08-27T04:13:28.729Z,4.95
2022-08-27T04:15:57.237Z,4.68
2022-08-27T04:18:25.954Z,4.13
2022-08-27T04:20:54.688Z,4.45
2022-08-27T04:23:24.524Z,4.32
2022-08-27T04:25:52.980Z,5.10
2022-08-27T04:28:21.439Z,3.70
2022-08-27T04:30:49.942Z,4.32
2022-08-27T04:33:18.422Z,4.38
2022-08-27T04:35:46.880Z,4.07
2022-08-27T04:38:15.406Z,3.85
2022-08-27T04:41:02.859Z,4.07
2022-08-27T04:43:31.425Z,4.07
2022-08-27T04:45:59.931Z,5.00
2022-08-27T04:48:28.434Z,4.72
2022-08-27T04:50:57.178Z,3.80
2022-08-27T04:53:25.945Z,4.40
2022-08-27T04:55:58.328Z,4.70
2022-08-27T04:58:27.770Z,4.72
2022-08-27T05:01:01.609Z,4.20
2022-08-27T05:03:30.261Z,5.25
2022-08-27T05:06:03.196Z,4.47
2022-08-27T05:08:31.768Z,4.03
2022-08-27T05:11:01.990Z,4.90
2022-08-27T05:13:31.173Z,4.00
2022-08-27T05:16:01.690Z,4.20
2022-08-27T05:18:31.864Z,4.68
2022-08-27T05:21:02.149Z,4.55
2022-08-27T05:23:30.935Z,3.90
2022-08-27T05:26:01.114Z,4.85
2022-08-27T05:28:30.907Z,4.70
2022-08-27T05:31:06.804Z,4.05
2022-08-27T05:33:35.988Z,4.00
2022-08-27T05:36:04.916Z,3.78
2022-08-27T05:38:35.184Z,4.53
2022-08-27T05:41:07.423Z,5.00
2022-08-27T05:43:36.568Z,3.65
2022-08-27T05:46:07.135Z,5.32
2022-08-27T05:48:37.190Z,4.18
2022-08-27T05:51:11.267Z,4.60
2022-08-27T05:53:45.203Z,4.78
2022-08-27T05:56:16.592Z,4.60
2022-08-27T05:59:02.578Z,4.18
2022-08-27T06:01:34.155Z,4.95
2022-08-27T06:04:02.751Z,4.63
2022-08-27T06:06:31.227Z,4.72
2022-08-27T06:08:59.613Z,4.10
2022-08-27T06:11:29.609Z,3.95
2022-08-27T06:13:58.637Z,3.85
2022-08-27T06:16:27.625Z,4.53
2022-08-27T06:18:57.645Z,4.65
2022-08-27T06:21:26.278Z,4.03
2022-08-27T06:23:55.546Z,4.05
2022-08-27T06:26:26.952Z,4.88
2022-08-27T06:28:56.967Z,4.40
2022-08-27T06:31:27.801Z,4.18
2022-08-27T06:34:02.815Z,4.28
2022-08-27T06:36:32.689Z,4.95
2022-08-27T06:39:01.451Z,4.80
2022-08-27T06:41:30.886Z,4.43
2022-08-27T06:44:01.442Z,4.28
2022-08-27T06:46:30.417Z,4.28
2022-08-27T06:49:01.309Z,4.18
2022-08-27T06:51:31.587Z,5.65
2022-08-27T06:54:02.122Z,4.20
2022-08-27T06:56:31.214Z,4.20
2022-08-27T06:59:02.943Z,4.90
2022-08-27T07:01:33.414Z,4.85
2022-08-27T07:04:05.646Z,5.35
2022-08-27T07:06:34.255Z,4.38
2022-08-27T07:09:03.480Z,4.95
2022-08-27T07:11:33.250Z,4.68
2022-08-27T07:14:03.522Z,3.53
2022-08-27T07:16:32.225Z,3.92
2022-08-27T07:19:04.054Z,4.75
2022-08-27T07:21:33.503Z,4.50
2022-08-27T07:24:05.672Z,4.80
2022-08-27T07:26:36.116Z,4.03
2022-08-27T07:29:07.231Z,3.70
2022-08-27T07:31:35.941Z,4.43
2022-08-27T07:34:04.809Z,3.95
2022-08-27T07:36:34.280Z,4.82
2022-08-27T07:39:02.795Z,4.15
2022-08-27T07:41:32.218Z,4.00
2022-08-27T07:44:25.975Z,3.92
2022-08-27T07:46:57.977Z,3.47
2022-08-27T07:49:26.730Z,4.95
2022-08-27T07:51:55.155Z,4.05
2022-08-27T07:54:25.477Z,3.78
2022-08-27T07:56:55.161Z,4.15
2022-08-27T07:59:24.948Z,4.80
2022-08-27T08:01:53.802Z,5.20
2022-08-27T08:04:23.878Z,3.78
2022-08-27T08:06:55.688Z,3.90
2022-08-27T08:09:25.147Z,4.43
2022-08-27T08:11:54.557Z,4.00
2022-08-27T08:14:23.489Z,4.25
2022-08-27T08:16:52.055Z,4.68
2022-08-27T08:19:20.730Z,4.72
2022-08-27T08:21:59.518Z,3.83
2022-08-27T08:24:30.051Z,3.78
2022-08-27T08:27:03.834Z,4.13
2022-08-27T08:29:35.508Z,3.78
2022-08-27T08:32:04.164Z,3.53
2022-08-27T08:34:36.118Z,4.35
2022-08-27T08:37:06.936Z,3.75
2022-08-27T08:39:36.337Z,4.55
2022-08-27T08:42:07.992Z,3.35
2022-08-27T08:44:41.392Z,3.72
2022-08-27T08:47:14.939Z,5.13
2022-08-27T08:49:50.391Z,4.20
2022-08-27T08:52:31.361Z,3.90
2022-08-27T08:55:12.056Z,3.40
2022-08-27T08:57:47.705Z,3.22
2022-08-27T09:00:16.727Z,4.00
2022-08-27T09:02:52.221Z,3.75
2022-08-27T09:05:20.760Z,4.32
2022-08-27T09:08:30.881Z,3.50
2022-08-27T09:11:01.029Z,3.35
2022-08-27T09:13:34.011Z,3.67
2022-08-27T09:16:05.326Z,3.80
2022-08-27T09:18:37.223Z,3.97
2022-08-27T09:21:15.475Z,3.28
2022-08-27T09:23:59.250Z,3.15
2022-08-27T09:26:30.080Z,3.33
2022-08-27T09:29:20.114Z,3.83
2022-08-27T09:31:54.884Z,3.67
2022-08-27T09:34:24.894Z,3.55
2022-08-27T09:37:01.533Z,3.47
2022-08-27T09:39:42.675Z,3.30
2022-08-27T09:42:26.680Z,3.90
2022-08-27T09:44:57.070Z,3.55
2022-08-27T09:47:26.150Z,3.13
2022-08-27T09:50:10.003Z,3.35
2022-08-27T09:52:49.307Z,3.70
2022-08-27T09:55:32.112Z,3.50
2022-08-27T09:58:01.447Z,3.58
2022-08-27T10:00:37.144Z,2.90
2022-08-27T10:03:09.054Z,3.00
2022-08-27T10:05:40.931Z,3.83
2022-08-27T10:08:21.025Z,3.42
2022-08-27T10:10:57.055Z,3.00
2022-08-27T10:13:32.132Z,3.28
2022-08-27T10:16:33.795Z,3.47
2022-08-27T10:19:18.047Z,3.60
2022-08-27T10:21:54.514Z,4.30
2022-08-27T10:24:34.666Z,3.55
2022-08-27T10:27:11.746Z,3.17
2022-08-27T10:29:47.379Z,3.45
2022-08-27T10:32:33.434Z,3.72
2022-08-27T10:35:09.950Z,3.75
2022-08-27T10:37:52.359Z,3.03
2022-08-27T10:40:27.790Z,3.88
2022-08-27T10:43:12.750Z,3.13
2022-08-27T10:45:48.975Z,2.47
2022-08-27T10:48:25.359Z,3.58
2022-08-27T10:51:00.587Z,3.67
2022-08-27T10:53:38.732Z,3.10
2022-08-27T10:56:15.614Z,3.42
2022-08-27T10:59:06.818Z,3.50
2022-08-27T11:01:45.014Z,3.47
2022-08-27T11:04:19.740Z,3.70
2022-08-27T11:06:54.540Z,4.10
2022-08-27T11:09:28.110Z,3.28
2022-08-27T11:12:16.870Z,4.03
2022-08-27T11:14:52.503Z,3.38
2022-08-27T11:17:32.059Z,3.60
2022-08-27T11:20:08.551Z,3.60
2022-08-27T11:22:41.727Z,3.95
2022-08-27T11:25:20.639Z,3.58
2022-08-27T11:27:50.391Z,3.20
2022-08-27T11:30:26.177Z,3.28
2022-08-27T11:33:03.740Z,3.33
2022-08-27T11:35:39.161Z,3.05
2022-08-27T11:38:28.313Z,3.55
2022-08-27T11:41:08.586Z,4.05
2022-08-27T11:43:39.271Z,3.75
2022-08-27T11:46:10.216Z,4.97
2022-08-27T11:48:42.809Z,4.13
2022-08-27T11:51:15.921Z,3.95
2022-08-27T11:53:58.079Z,3.30
2022-08-27T11:56:40.653Z,3.97
2022-08-27T11:59:20.901Z,3.75
2022-08-27T12:01:52.716Z,3.25
2022-08-27T12:04:25.638Z,4.20
2022-08-27T12:07:02.513Z,2.97
2022-08-27T12:09:44.180Z,3.70
2022-08-27T12:12:21.268Z,3.22
2022-08-27T12:14:55.836Z,2.70
2022-08-27T12:17:39.127Z,3.13
2022-08-27T12:20:19.911Z,3.50
2022-08-27T12:23:15.887Z,2.83
2022-08-27T12:25:44.307Z,4.68
2022-08-27T12:28:26.647Z,3.70
2022-08-27T12:30:56.388Z,3.63
2022-08-27T12:33:32.222Z,2.90
2022-08-27T12:36:11.981Z,4.85
2022-08-27T12:38:50.465Z,3.47
2022-08-27T12:41:32.096Z,4.50
2022-08-27T12:44:05.853Z,4.00
2022-08-27T12:46:34.917Z,3.15
2022-08-27T12:49:36.141Z,3.45
2022-08-27T12:51:56.124Z,3.20
2022-08-27T12:54:37.244Z,3.35
2022-08-27T12:57:14.934Z,3.15
2022-08-27T13:00:01.031Z,3.40
2022-08-27T13:02:50.182Z,3.72
2022-08-27T13:05:23.543Z,3.50
2022-08-27T13:07:53.441Z,2.80
2022-08-27T13:10:26.111Z,3.75
2022-08-27T13:13:05.258Z,4.53
2022-08-27T13:15:35.262Z,2.95
2022-08-27T13:18:06.977Z,2.90
2022-08-27T13:20:39.057Z,2.83
2022-08-27T13:23:17.273Z,3.55
2022-08-27T13:26:06.580Z,3.30
2022-08-27T13:28:50.495Z,3.28
2022-08-27T13:31:29.483Z,4.10
2022-08-27T13:34:09.706Z,3.15
2022-08-27T13:44:09.709Z,4.03
2022-08-27T13:50:59.283Z,3.53
2022-08-27T14:05:05.488Z,3.25
2022-08-27T14:07:37.629Z,3.70
2022-08-27T14:10:26.511Z,3.15
2022-08-27T14:13:00.141Z,3.85
2022-08-27T14:15:54.093Z,2.97
2022-08-27T14:19:12.238Z,3.38
2022-08-27T14:21:44.264Z,3.47
2022-08-27T14:28:18.680Z,3.63
2022-08-27T14:30:55.361Z,3.45
2022-08-27T14:33:34.123Z,3.30
2022-08-27T14:36:02.815Z,3.13
2022-08-27T14:38:41.429Z,3.38
2022-08-27T14:41:21.391Z,3.55
2022-08-27T14:43:51.780Z,3.30
2022-08-27T14:46:26.763Z,3.13
2022-08-27T14:48:56.964Z,3.78
2022-08-27T14:51:27.648Z,4.25
2022-08-27T14:53:59.186Z,4.00
2022-08-27T14:56:28.375Z,2.70
2022-08-27T14:58:56.960Z,3.40
2022-08-27T15:01:27.071Z,3.97
2022-08-27T15:03:56.699Z,3.30
2022-08-27T15:06:25.458Z,4.03
2022-08-27T15:08:56.764Z,3.95
2022-08-27T15:11:28.224Z,3.22
2022-08-27T15:13:58.141Z,2.92
2022-08-27T15:16:32.245Z,3.15
2022-08-27T15:19:01.796Z,3.70
2022-08-27T15:21:31.770Z,3.70
2022-08-27T15:24:05.909Z,3.65
2022-08-27T15:26:34.884Z,4.35
2022-08-27T15:29:06.632Z,3.92
2022-08-27T15:31:36.145Z,3.58
2022-08-27T15:34:04.785Z,3.72
2022-08-27T15:36:33.165Z,3.55
2022-08-27T15:39:03.176Z,3.65
2022-08-27T15:41:34.073Z,4.45
2022-08-27T15:44:02.966Z,3.35
2022-08-27T15:46:31.685Z,3.97
2022-08-27T15:49:00.163Z,3.70
2022-08-27T15:51:32.722Z,4.40
2022-08-27T15:54:03.461Z,5.38
2022-08-27T15:56:34.598Z,4.97
2022-08-27T15:59:03.191Z,4.00
2022-08-27T16:01:34.368Z,4.50
2022-08-27T16:04:03.298Z,3.65
2022-08-27T16:06:32.646Z,4.25
2022-08-27T16:09:01.007Z,2.97
2022-08-27T16:11:30.872Z,3.58
2022-08-27T16:13:59.521Z,3.35
2022-08-27T16:16:32.994Z,4.28
2022-08-27T16:19:03.190Z,2.92
2022-08-27T16:21:35.047Z,3.10
2022-08-27T16:24:03.948Z,3.60
2022-08-27T16:26:33.892Z,3.97
2022-08-27T16:29:02.686Z,3.53
2022-08-27T16:31:32.837Z,4.40
2022-08-27T16:34:01.630Z,4.22
2022-08-27T16:36:30.755Z,4.88
2022-08-27T16:38:59.166Z,3.63
2022-08-27T16:41:27.887Z,4.40
2022-08-27T16:43:58.913Z,4.78
2022-08-27T16:46:27.485Z,4.32
2022-08-27T16:49:15.085Z,5.20
2022-08-27T16:51:45.613Z,4.95
2022-08-27T16:54:16.610Z,5.30
2022-08-27T16:56:46.281Z,5.57
2022-08-27T16:59:16.383Z,5.53
2022-08-27T17:01:46.590Z,5.95
2022-08-27T17:04:23.867Z,11.75
2022-08-27T17:06:58.286Z,10.93
2022-08-27T17:09:26.847Z,11.82
2022-08-27T17:11:57.686Z,18.42
2022-08-27T17:14:27.943Z,15.13
2022-08-27T17:16:56.382Z,10.23
2022-08-27T17:19:26.291Z,9.43
2022-08-27T17:21:55.398Z,8.90
2022-08-27T17:24:23.888Z,8.98
2022-08-27T17:26:52.510Z,9.18
2022-08-27T17:29:21.115Z,8.25
2022-08-27T17:31:50.965Z,8.63
2022-08-27T17:34:22.867Z,9.48
2022-08-27T17:36:52.236Z,10.07
2022-08-27T17:39:21.651Z,11.07
2022-08-27T17:41:52.242Z,11.60
2022-08-27T17:44:24.350Z,10.32
2022-08-27T17:46:57.340Z,10.98
2022-08-27T17:49:26.583Z,10.25
2022-08-27T17:54:58.642Z,9.88
2022-08-27T17:57:29.658Z,11.70
2022-08-27T18:00:10.754Z,11.32
2022-08-27T18:02:43.040Z,12.70
2022-08-27T18:05:13.333Z,12.52
2022-08-27T18:07:42.790Z,13.77
2022-08-27T18:10:12.746Z,12.32
2022-08-27T18:12:42.349Z,12.02
2022-08-27T18:15:15.360Z,11.77
2022-08-27T18:17:45.369Z,12.48
2022-08-27T18:20:16.602Z,13.88
2022-08-27T18:22:48.382Z,15.50
2022-08-27T18:25:18.443Z,14.82
2022-08-27T18:27:50.049Z,13.80
2022-08-27T18:30:19.285Z,14.13
2022-08-27T18:32:49.176Z,13.32
2022-08-27T18:35:21.504Z,13.27
2022-08-27T18:37:49.929Z,13.48
2022-08-27T18:40:20.199Z,15.88
2022-08-27T18:42:49.558Z,16.73
2022-08-27T18:45:21.007Z,14.68
2022-08-27T18:47:51.456Z,16.08
2022-08-27T18:50:20.415Z,15.45
2022-08-27T18:52:51.102Z,13.07
2022-08-27T18:55:22.082Z,11.98
2022-08-27T18:57:50.747Z,12.80
2022-08-27T19:00:20.381Z,11.93
2022-08-27T19:02:53.582Z,11.45
2022-08-27T19:05:26.732Z,11.52
2022-08-27T19:07:55.772Z,11.68
2022-08-27T19:10:24.655Z,10.05
2022-08-27T19:12:53.098Z,11.18
2022-08-27T19:15:22.182Z,9.45
2022-08-27T19:17:55.194Z,9.82
2022-08-27T19:20:24.201Z,10.25
2022-08-27T19:22:52.698Z,8.88
2022-08-27T19:25:22.002Z,7.95
2022-08-27T19:27:51.122Z,8.43
2022-08-27T19:30:19.493Z,7.30
2022-08-27T19:32:48.017Z,9.13
2022-08-27T19:35:24.659Z,8.57
2022-08-27T19:37:53.663Z,10.60
2022-08-27T19:40:22.934Z,9.48
2022-08-27T19:42:52.379Z,8.63
2022-08-27T19:45:25.257Z,10.10
2022-08-27T19:47:54.234Z,9.55
2022-08-27T19:50:24.976Z,9.13
2022-08-27T19:52:53.840Z,8.48
2022-08-27T19:55:22.354Z,9.75
2022-08-27T19:57:51.060Z,9.38
2022-08-27T20:00:21.812Z,9.20
2022-08-27T20:02:50.712Z,9.43
2022-08-27T20:05:20.991Z,8.85
2022-08-27T20:07:52.790Z,7.90
2022-08-27T20:10:23.157Z,9.43
2022-08-27T20:12:54.352Z,7.72
2022-08-27T20:15:23.589Z,7.43
2022-08-27T20:17:53.915Z,6.82
2022-08-27T20:20:24.631Z,6.85
2022-08-27T20:22:55.300Z,5.72
2022-08-27T20:25:25.193Z,6.28
2022-08-27T20:27:53.999Z,7.13
2022-08-27T20:30:25.358Z,5.95
2022-08-27T20:32:54.019Z,5.95
2022-08-27T20:35:23.381Z,7.00
2022-08-27T20:37:53.752Z,5.85
2022-08-27T20:40:24.865Z,7.00
2022-08-27T20:42:53.805Z,6.05
2022-08-27T20:45:22.741Z,6.45
2022-08-27T20:47:53.088Z,5.85
2022-08-27T20:50:23.136Z,6.50
2022-08-27T20:52:53.446Z,6.47
2022-08-27T20:55:23.749Z,6.05
2022-08-27T20:58:09.827Z,5.90
2022-08-27T21:00:40.871Z,6.13
2022-08-27T21:03:09.939Z,6.18
2022-08-27T21:05:38.366Z,6.10
2022-08-27T21:08:08.809Z,6.20
2022-08-27T21:10:37.284Z,6.63
2022-08-27T21:13:08.044Z,6.85
2022-08-27T21:15:38.285Z,7.35
2022-08-27T21:18:07.027Z,6.50
2022-08-27T21:20:36.055Z,6.00
2022-08-27T21:23:04.782Z,6.95
2022-08-27T21:25:34.549Z,6.55
2022-08-27T21:28:04.026Z,7.07
2022-08-27T21:30:32.579Z,7.13
2022-08-27T21:33:01.124Z,6.80
2022-08-27T21:35:31.936Z,6.60
2022-08-27T21:38:01.875Z,6.07
2022-08-27T21:40:30.875Z,6.60
2022-08-27T21:43:01.969Z,6.95
2022-08-27T21:45:30.364Z,7.15
2022-08-27T21:47:58.751Z,7.35
2022-08-27T21:50:27.505Z,7.85
2022-08-27T21:52:55.924Z,6.80
2022-08-27T21:55:24.594Z,6.20
2022-08-27T21:57:53.079Z,6.20
2022-08-27T22:00:41.281Z,7.32
2022-08-27T22:03:13.802Z,6.55
2022-08-27T22:05:44.039Z,6.47
2022-08-27T22:08:13.693Z,6.80
2022-08-27T22:10:43.891Z,6.07
2022-08-27T22:13:13.064Z,5.88
2022-08-27T22:15:43.241Z,6.03
2022-08-27T22:18:12.383Z,6.28
2022-08-27T22:20:41.415Z,6.07
2022-08-27T22:23:12.497Z,6.15
2022-08-27T22:25:42.536Z,6.68
2022-08-27T22:28:11.757Z,5.63
2022-08-27T22:30:41.320Z,5.80
2022-08-27T22:33:12.116Z,6.65
2022-08-27T22:35:40.766Z,6.45
2022-08-27T22:38:09.806Z,6.35
2022-08-27T22:40:38.287Z,6.22
2022-08-27T22:43:07.112Z,6.45
2022-08-27T22:45:35.802Z,6.47
2022-08-27T22:48:04.778Z,6.57
2022-08-27T22:50:34.642Z,6.25
2022-08-27T22:53:03.230Z,6.60
2022-08-27T22:55:31.759Z,6.22
2022-08-27T22:58:02.132Z,6.72
2022-08-27T23:00:32.285Z,6.03
2022-08-27T23:03:01.077Z,6.88
2022-08-27T23:05:40.497Z,5.78
2022-08-27T23:08:14.097Z,6.10
2022-08-27T23:10:43.822Z,5.78
2022-08-27T23:13:13.391Z,5.88
2022-08-27T23:15:42.838Z,6.28
2022-08-27T23:18:12.153Z,5.35
2022-08-27T23:20:40.887Z,5.68
2022-08-27T23:23:10.208Z,5.43
2022-08-27T23:25:58.383Z,5.65
2022-08-27T23:28:26.765Z,5.70
2022-08-27T23:30:55.308Z,5.60
2022-08-27T23:33:23.818Z,4.90
2022-08-27T23:35:52.501Z,6.22
2022-08-27T23:38:22.434Z,6.28
2022-08-27T23:40:52.454Z,5.68
2022-08-27T23:43:22.213Z,5.00
2022-08-27T23:45:50.808Z,4.82
2022-08-27T23:48:19.652Z,5.22
2022-08-27T23:50:48.163Z,5.43
2022-08-27T23:53:16.759Z,4.95
2022-08-27T23:55:45.240Z,5.35
2022-08-27T23:58:15.089Z,5.47
